sensor_id;sensor_type;location;lat;lon;timestamp;pressure;altitude;pressure_sealevel;temperature;humidity
36454;BME280;22478;51.740;-1.314;2023-09-19T00:00:58;99410.92;;;9.64;100.00
36454;BME280;22478;51.740;-1.314;2023-09-19T00:03:25;99418.72;;;10.38;100.00
36454;BME280;22478;51.740;-1.314;2023-09-19T00:05:52;99423.65;;;10.84;100.00
36454;BME280;22478;51.740;-1.314;2023-09-19T00:08:19;99423.55;;;10.59;100.00
36454;BME280;22478;51.740;-1.314;2023-09-19T00:10:46;99419.84;;;9.63;100.00
36454;BME280;22478;51.740;-1.314;2023-09-19T00:13:13;99423.67;;;10.44;100.00
36454;BME280;22478;51.740;-1.314;2023-09-19T00:15:44;99424.34;;;9.31;100.00
36454;BME280;22478;51.740;-1.314;2023-09-19T00:18:12;99429.55;;;11.05;100.00
36454;BME280;22478;51.740;-1.314;2023-09-19T00:20:39;99434.33;;;9.35;100.00
36454;BME280;22478;51.740;-1.314;2023-09-19T00:23:06;99437.80;;;11.10;100.00
36454;BME280;22478;51.740;-1.314;2023-09-19T00:25:33;99435.14;;;9.74;100.00
36454;BME280;22478;51.740;-1.314;2023-09-19T00:28:01;99438.96;;;8.82;100.00
36454;BME280;22478;51.740;-1.314;2023-09-19T00:30:32;99432.08;;;9.58;100.00
36454;BME280;22478;51.740;-1.314;2023-09-19T00:33:00;99434.46;;;11.57;100.00
36454;BME280;22478;51.740;-1.314;2023-09-19T00:35:27;99435.40;;;11.35;100.00
36454;BME280;22478;51.740;-1.314;2023-09-19T00:37:54;99434.27;;;10.40;100.00
36454;BME280;22478;51.740;-1.314;2023-09-19T00:40:22;99428.52;;;10.17;100.00
36454;BME280;22478;51.740;-1.314;2023-09-19T00:42:49;99432.40;;;11.32;100.00
36454;BME280;22478;51.740;-1.314;2023-09-19T00:45:17;99437.85;;;10.84;100.00
36454;BME280;22478;51.740;-1.314;2023-09-19T00:47:45;99433.91;;;9.83;100.00
36454;BME280;22478;51.740;-1.314;2023-09-19T00:50:15;99435.16;;;11.46;100.00
36454;BME280;22478;51.740;-1.314;2023-09-19T00:52:44;99436.94;;;8.78;100.00
36454;BME280;22478;51.740;-1.314;2023-09-19T00:55:14;99434.99;;;10.47;100.00
36454;BME280;22478;51.740;-1.314;2023-09-19T00:57:42;99438.67;;;10.99;100.00
36454;BME280;22478;51.740;-1.314;2023-09-19T01:00:11;99445.23;;;8.18;100.00
36454;BME280;22478;51.740;-1.314;2023-09-19T01:02:38;99443.10;;;10.67;100.00
36454;BME280;22478;51.740;-1.314;2023-09-19T01:05:05;99438.53;;;10.14;100.00
36454;BME280;22478;51.740;-1.314;2023-09-19T01:07:33;99434.90;;;10.98;100.00
36454;BME280;22478;51.740;-1.314;2023-09-19T01:10:02;99432.95;;;10.72;100.00
36454;BME280;22478;51.740;-1.314;2023-09-19T01:12:35;99432.38;;;11.91;100.00
36454;BME280;22478;51.740;-1.314;2023-09-19T01:15:13;99436.44;;;10.62;100.00
36454;BME280;22478;51.740;-1.314;2023-09-19T01:17:46;99430.05;;;9.31;100.00
36454;BME280;22478;51.740;-1.314;2023-09-19T01:20:25;99425.94;;;9.66;100.00
36454;BME280;22478;51.740;-1.314;2023-09-19T01:23:28;99427.84;;;10.11;100.00
36454;BME280;22478;51.740;-1.314;2023-09-19T01:26:10;99418.72;;;10.80;100.00
36454;BME280;22478;51.740;-1.314;2023-09-19T01:28:48;99415.40;;;10.71;100.00
36454;BME280;22478;51.740;-1.314;2023-09-19T01:31:19;99426.74;;;11.15;100.00
36454;BME280;22478;51.740;-1.314;2023-09-19T01:34:03;99425.61;;;10.46;100.00
36454;BME280;22478;51.740;-1.314;2023-09-19T01:36:32;99422.29;;;10.35;100.00
36454;BME280;22478;51.740;-1.314;2023-09-19T01:39:00;99424.28;;;9.03;100.00
36454;BME280;22478;51.740;-1.314;2023-09-19T01:41:38;99426.65;;;8.22;100.00
36454;BME280;22478;51.740;-1.314;2023-09-19T01:44:09;99423.50;;;10.11;100.00
36454;BME280;22478;51.740;-1.314;2023-09-19T01:46:41;99426.59;;;10.90;100.00
36454;BME280;22478;51.740;-1.314;2023-09-19T01:49:22;99435.10;;;10.77;100.00
36454;BME280;22478;51.740;-1.314;2023-09-19T01:52:04;99438.15;;;10.84;100.00
36454;BME280;22478;51.740;-1.314;2023-09-19T01:54:38;99443.24;;;10.48;100.00
36454;BME280;22478;51.740;-1.314;2023-09-19T01:57:13;99438.92;;;10.58;100.00
36454;BME280;22478;51.740;-1.314;2023-09-19T01:59:48;99439.25;;;11.50;100.00
36454;BME280;22478;51.740;-1.314;2023-09-19T02:02:17;99440.67;;;10.98;100.00
36454;BME280;22478;51.740;-1.314;2023-09-19T02:04:47;99444.52;;;9.86;100.00
36454;BME280;22478;51.740;-1.314;2023-09-19T02:07:16;99441.18;;;11.17;100.00
36454;BME280;22478;51.740;-1.314;2023-09-19T02:09:43;99418.48;;;11.52;100.00
36454;BME280;22478;51.740;-1.314;2023-09-19T02:12:10;99402.26;;;11.12;100.00
36454;BME280;22478;51.740;-1.314;2023-09-19T02:14:38;99396.53;;;10.16;100.00
36454;BME280;22478;51.740;-1.314;2023-09-19T02:17:05;99405.58;;;9.76;100.00
36454;BME280;22478;51.740;-1.314;2023-09-19T02:19:32;99401.96;;;10.66;100.00
36454;BME280;22478;51.740;-1.314;2023-09-19T02:21:59;99408.23;;;10.76;100.00
36454;BME280;22478;51.740;-1.314;2023-09-19T02:24:26;99409.63;;;10.94;100.00
36454;BME280;22478;51.740;-1.314;2023-09-19T02:26:58;99415.35;;;8.34;100.00
36454;BME280;22478;51.740;-1.314;2023-09-19T02:29:25;99413.44;;;10.77;100.00
36454;BME280;22478;51.740;-1.314;2023-09-19T02:31:52;99414.73;;;10.59;100.00
36454;BME280;22478;51.740;-1.314;2023-09-19T02:34:20;99414.77;;;11.51;100.00
36454;BME280;22478;51.740;-1.314;2023-09-19T02:36:47;99405.96;;;9.77;100.00
36454;BME280;22478;51.740;-1.314;2023-09-19T02:39:14;99402.82;;;8.17;100.00
36454;BME280;22478;51.740;-1.314;2023-09-19T02:41:41;99401.29;;;8.44;100.00
36454;BME280;22478;51.740;-1.314;2023-09-19T02:44:09;99398.22;;;9.68;100.00
36454;BME280;22478;51.740;-1.314;2023-09-19T02:46:36;99399.01;;;9.56;100.00
36454;BME280;22478;51.740;-1.314;2023-09-19T02:49:03;99402.00;;;8.70;100.00
36454;BME280;22478;51.740;-1.314;2023-09-19T02:51:31;99397.12;;;9.03;100.00
36454;BME280;22478;51.740;-1.314;2023-09-19T02:53:58;99387.54;;;9.25;100.00
36454;BME280;22478;51.740;-1.314;2023-09-19T02:56:26;99391.88;;;9.73;100.00
36454;BME280;22478;51.740;-1.314;2023-09-19T02:58:53;99392.60;;;10.41;100.00
36454;BME280;22478;51.740;-1.314;2023-09-19T03:01:20;99389.41;;;9.91;100.00
36454;BME280;22478;51.740;-1.314;2023-09-19T03:03:47;99386.21;;;10.91;100.00
36454;BME280;22478;51.740;-1.314;2023-09-19T03:06:14;99384.02;;;11.12;100.00
36454;BME280;22478;51.740;-1.314;2023-09-19T03:08:41;99378.95;;;10.89;100.00
36454;BME280;22478;51.740;-1.314;2023-09-19T03:11:08;99372.88;;;10.28;100.00
36454;BME280;22478;51.740;-1.314;2023-09-19T03:13:35;99373.53;;;9.56;100.00
36454;BME280;22478;51.740;-1.314;2023-09-19T03:16:03;99364.45;;;9.68;100.00
36454;BME280;22478;51.740;-1.314;2023-09-19T03:18:31;99365.71;;;10.25;100.00
36454;BME280;22478;51.740;-1.314;2023-09-19T03:20:58;99361.09;;;9.69;100.00
36454;BME280;22478;51.740;-1.314;2023-09-19T03:23:27;99358.39;;;10.06;100.00
36454;BME280;22478;51.740;-1.314;2023-09-19T03:25:55;99360.04;;;8.98;100.00
36454;BME280;22478;51.740;-1.314;2023-09-19T03:28:23;99348.78;;;8.40;100.00
36454;BME280;22478;51.740;-1.314;2023-09-19T03:30:59;99347.36;;;8.69;100.00
36454;BME280;22478;51.740;-1.314;2023-09-19T03:33:26;99348.78;;;10.38;100.00
36454;BME280;22478;51.740;-1.314;2023-09-19T03:35:53;99337.57;;;10.05;100.00
36454;BME280;22478;51.740;-1.314;2023-09-19T03:38:21;99336.23;;;8.85;100.00
36454;BME280;22478;51.740;-1.314;2023-09-19T03:40:48;99324.81;;;9.85;100.00
36454;BME280;22478;51.740;-1.314;2023-09-19T03:43:15;99311.77;;;10.16;100.00
36454;BME280;22478;51.740;-1.314;2023-09-19T03:45:42;99305.64;;;8.85;100.00
36454;BME280;22478;51.740;-1.314;2023-09-19T03:48:09;99307.58;;;9.87;100.00
36454;BME280;22478;51.740;-1.314;2023-09-19T03:50:36;99306.05;;;10.37;100.00
36454;BME280;22478;51.740;-1.314;2023-09-19T03:53:04;99306.67;;;9.46;100.00
36454;BME280;22478;51.740;-1.314;2023-09-19T03:55:31;99296.02;;;9.23;100.00
36454;BME280;22478;51.740;-1.314;2023-09-19T03:57:58;99287.94;;;9.42;100.00
36454;BME280;22478;51.740;-1.314;2023-09-19T04:00:25;99290.87;;;9.68;100.00
36454;BME280;22478;51.740;-1.314;2023-09-19T04:02:53;99293.72;;;8.46;100.00
36454;BME280;22478;51.740;-1.314;2023-09-19T04:05:20;99294.87;;;9.96;100.00
36454;BME280;22478;51.740;-1.314;2023-09-19T04:07:47;99299.51;;;9.97;100.00
36454;BME280;22478;51.740;-1.314;2023-09-19T04:10:14;99301.95;;;8.85;100.00
36454;BME280;22478;51.740;-1.314;2023-09-19T04:12:41;99305.20;;;9.26;100.00
36454;BME280;22478;51.740;-1.314;2023-09-19T04:15:16;99305.52;;;9.45;100.00
36454;BME280;22478;51.740;-1.314;2023-09-19T04:17:43;99309.28;;;10.18;100.00
36454;BME280;22478;51.740;-1.314;2023-09-19T04:20:11;99302.48;;;9.95;100.00
36454;BME280;22478;51.740;-1.314;2023-09-19T04:22:38;99290.38;;;9.13;100.00
36454;BME280;22478;51.740;-1.314;2023-09-19T04:25:06;99287.77;;;10.11;100.00
36454;BME280;22478;51.740;-1.314;2023-09-19T04:27:34;99295.25;;;10.04;100.00
36454;BME280;22478;51.740;-1.314;2023-09-19T04:30:01;99289.79;;;10.38;100.00
36454;BME280;22478;51.740;-1.314;2023-09-19T04:32:29;99276.03;;;10.23;100.00
36454;BME280;22478;51.740;-1.314;2023-09-19T04:34:56;99264.50;;;9.39;100.00
36454;BME280;22478;51.740;-1.314;2023-09-19T04:37:23;99258.59;;;8.59;100.00
36454;BME280;22478;51.740;-1.314;2023-09-19T04:39:50;99258.37;;;10.15;100.00
36454;BME280;22478;51.740;-1.314;2023-09-19T04:42:17;99256.07;;;8.76;100.00
36454;BME280;22478;51.740;-1.314;2023-09-19T04:44:44;99262.76;;;10.17;100.00
36454;BME280;22478;51.740;-1.314;2023-09-19T04:47:11;99264.93;;;10.11;100.00
36454;BME280;22478;51.740;-1.314;2023-09-19T04:49:38;99254.79;;;9.52;100.00
36454;BME280;22478;51.740;-1.314;2023-09-19T04:52:05;99252.12;;;9.23;100.00
36454;BME280;22478;51.740;-1.314;2023-09-19T04:54:32;99255.30;;;10.47;100.00
36454;BME280;22478;51.740;-1.314;2023-09-19T04:56:59;99257.09;;;10.09;100.00
36454;BME280;22478;51.740;-1.314;2023-09-19T04:59:26;99252.31;;;10.86;100.00
36454;BME280;22478;51.740;-1.314;2023-09-19T05:01:53;99252.04;;;10.29;100.00
36454;BME280;22478;51.740;-1.314;2023-09-19T05:04:20;99256.23;;;9.81;100.00
36454;BME280;22478;51.740;-1.314;2023-09-19T05:06:47;99249.83;;;11.46;100.00
36454;BME280;22478;51.740;-1.314;2023-09-19T05:09:14;99250.06;;;10.24;100.00
36454;BME280;22478;51.740;-1.314;2023-09-19T05:11:41;99247.05;;;10.26;100.00
36454;BME280;22478;51.740;-1.314;2023-09-19T05:14:08;99243.12;;;11.38;100.00
36454;BME280;22478;51.740;-1.314;2023-09-19T05:16:35;99241.93;;;8.71;100.00
36454;BME280;22478;51.740;-1.314;2023-09-19T05:19:02;99244.90;;;9.68;100.00
36454;BME280;22478;51.740;-1.314;2023-09-19T05:21:30;99241.16;;;10.12;100.00
36454;BME280;22478;51.740;-1.314;2023-09-19T05:23:57;99241.54;;;10.22;100.00
36454;BME280;22478;51.740;-1.314;2023-09-19T05:26:24;99233.84;;;11.24;100.00
36454;BME280;22478;51.740;-1.314;2023-09-19T05:28:51;99231.18;;;10.71;100.00
36454;BME280;22478;51.740;-1.314;2023-09-19T05:31:18;99243.98;;;9.62;100.00
36454;BME280;22478;51.740;-1.314;2023-09-19T05:33:45;99235.68;;;9.78;100.00
36454;BME280;22478;51.740;-1.314;2023-09-19T05:36:12;99234.03;;;9.88;100.00
36454;BME280;22478;51.740;-1.314;2023-09-19T05:38:39;99228.57;;;10.02;100.00
36454;BME280;22478;51.740;-1.314;2023-09-19T05:41:06;99233.20;;;8.90;100.00
36454;BME280;22478;51.740;-1.314;2023-09-19T05:43:33;99231.10;;;9.75;100.00
36454;BME280;22478;51.740;-1.314;2023-09-19T05:46:01;99223.60;;;9.79;100.00
36454;BME280;22478;51.740;-1.314;2023-09-19T05:48:27;99216.44;;;10.26;100.00
36454;BME280;22478;51.740;-1.314;2023-09-19T05:50:55;99203.03;;;10.74;100.00
36454;BME280;22478;51.740;-1.314;2023-09-19T05:53:22;99200.11;;;10.79;100.00
36454;BME280;22478;51.740;-1.314;2023-09-19T05:55:49;99201.42;;;10.51;100.00
36454;BME280;22478;51.740;-1.314;2023-09-19T05:58:16;99198.06;;;9.31;100.00
36454;BME280;22478;51.740;-1.314;2023-09-19T06:00:43;99188.26;;;11.41;100.00
36454;BME280;22478;51.740;-1.314;2023-09-19T06:03:10;99196.25;;;9.08;100.00
36454;BME280;22478;51.740;-1.314;2023-09-19T06:05:37;99193.72;;;8.84;100.00
36454;BME280;22478;51.740;-1.314;2023-09-19T06:08:04;99187.50;;;9.96;100.00
36454;BME280;22478;51.740;-1.314;2023-09-19T06:10:31;99185.73;;;10.02;100.00
36454;BME280;22478;51.740;-1.314;2023-09-19T06:12:58;99183.13;;;9.60;100.00
36454;BME280;22478;51.740;-1.314;2023-09-19T06:15:25;99178.29;;;9.93;100.00
36454;BME280;22478;51.740;-1.314;2023-09-19T06:17:54;99168.90;;;9.82;100.00
36454;BME280;22478;51.740;-1.314;2023-09-19T06:20:21;99159.91;;;9.69;100.00
36454;BME280;22478;51.740;-1.314;2023-09-19T06:22:49;99156.20;;;8.42;100.00
36454;BME280;22478;51.740;-1.314;2023-09-19T06:25:17;99150.13;;;9.85;100.00
36454;BME280;22478;51.740;-1.314;2023-09-19T06:27:45;99141.07;;;9.87;100.00
36454;BME280;22478;51.740;-1.314;2023-09-19T06:30:13;99132.87;;;10.88;100.00
36454;BME280;22478;51.740;-1.314;2023-09-19T06:32:40;99146.73;;;9.44;100.00
36454;BME280;22478;51.740;-1.314;2023-09-19T06:35:08;99138.99;;;10.76;100.00
36454;BME280;22478;51.740;-1.314;2023-09-19T06:37:35;99141.39;;;9.64;100.00
36454;BME280;22478;51.740;-1.314;2023-09-19T06:40:02;99133.76;;;10.34;100.00
36454;BME280;22478;51.740;-1.314;2023-09-19T06:42:30;99132.82;;;10.11;100.00
36454;BME280;22478;51.740;-1.314;2023-09-19T06:44:57;99128.48;;;11.62;100.00
36454;BME280;22478;51.740;-1.314;2023-09-19T06:47:24;99129.38;;;10.99;100.00
36454;BME280;22478;51.740;-1.314;2023-09-19T06:49:51;99122.30;;;11.15;100.00
36454;BME280;22478;51.740;-1.314;2023-09-19T06:52:18;99132.00;;;8.82;100.00
36454;BME280;22478;51.740;-1.314;2023-09-19T06:54:45;99131.85;;;9.06;100.00
36454;BME280;22478;51.740;-1.314;2023-09-19T06:57:12;99122.26;;;10.58;100.00
36454;BME280;22478;51.740;-1.314;2023-09-19T06:59:39;99109.91;;;10.77;100.00
36454;BME280;22478;51.740;-1.314;2023-09-19T07:02:06;99116.83;;;9.49;100.00
36454;BME280;22478;51.740;-1.314;2023-09-19T07:04:33;99115.42;;;10.42;100.00
36454;BME280;22478;51.740;-1.314;2023-09-19T07:07:00;99104.10;;;11.12;100.00
36454;BME280;22478;51.740;-1.314;2023-09-19T07:09:27;99107.84;;;10.97;100.00
36454;BME280;22478;51.740;-1.314;2023-09-19T07:11:54;99107.19;;;10.03;100.00
36454;BME280;22478;51.740;-1.314;2023-09-19T07:14:21;99106.86;;;11.99;100.00
36454;BME280;22478;51.740;-1.314;2023-09-19T07:16:48;99109.14;;;11.28;100.00
36454;BME280;22478;51.740;-1.314;2023-09-19T07:19:15;99107.16;;;10.61;100.00
36454;BME280;22478;51.740;-1.314;2023-09-19T07:21:42;99105.90;;;9.50;100.00
36454;BME280;22478;51.740;-1.314;2023-09-19T07:24:09;99104.28;;;11.04;100.00
36454;BME280;22478;51.740;-1.314;2023-09-19T07:26:36;99111.38;;;9.11;100.00
36454;BME280;22478;51.740;-1.314;2023-09-19T07:29:03;99109.36;;;10.85;100.00
36454;BME280;22478;51.740;-1.314;2023-09-19T07:31:30;99109.54;;;9.53;100.00
36454;BME280;22478;51.740;-1.314;2023-09-19T07:33:58;99113.57;;;12.31;100.00
36454;BME280;22478;51.740;-1.314;2023-09-19T07:36:25;99118.52;;;10.95;100.00
36454;BME280;22478;51.740;-1.314;2023-09-19T07:38:52;99116.98;;;11.72;100.00
36454;BME280;22478;51.740;-1.314;2023-09-19T07:41:20;99114.16;;;11.71;100.00
36454;BME280;22478;51.740;-1.314;2023-09-19T07:43:47;99114.97;;;10.94;100.00
36454;BME280;22478;51.740;-1.314;2023-09-19T07:46:14;99108.44;;;11.75;100.00
36454;BME280;22478;51.740;-1.314;2023-09-19T07:48:41;99102.56;;;12.21;100.00
36454;BME280;22478;51.740;-1.314;2023-09-19T07:51:08;99109.97;;;11.65;100.00
36454;BME280;22478;51.740;-1.314;2023-09-19T07:53:36;99116.58;;;10.39;100.00
36454;BME280;22478;51.740;-1.314;2023-09-19T07:56:48;99113.08;;;9.99;100.00
36454;BME280;22478;51.740;-1.314;2023-09-19T07:59:16;99109.96;;;11.59;100.00
36454;BME280;22478;51.740;-1.314;2023-09-19T08:01:43;99108.81;;;10.68;100.00
36454;BME280;22478;51.740;-1.314;2023-09-19T08:04:10;99093.88;;;11.74;100.00
36454;BME280;22478;51.740;-1.314;2023-09-19T08:06:37;99106.84;;;10.92;100.00
36454;BME280;22478;51.740;-1.314;2023-09-19T08:11:14;99095.44;;;10.29;100.00
36454;BME280;22478;51.740;-1.314;2023-09-19T08:15:10;99105.74;;;10.52;100.00
36454;BME280;22478;51.740;-1.314;2023-09-19T08:17:57;99108.76;;;11.52;100.00
36454;BME280;22478;51.740;-1.314;2023-09-19T08:20:25;99115.52;;;10.79;100.00
36454;BME280;22478;51.740;-1.314;2023-09-19T08:22:53;99119.49;;;13.49;100.00
36454;BME280;22478;51.740;-1.314;2023-09-19T08:25:21;99120.06;;;11.43;100.00
36454;BME280;22478;51.740;-1.314;2023-09-19T08:27:49;99124.87;;;11.00;100.00
36454;BME280;22478;51.740;-1.314;2023-09-19T08:30:20;99111.43;;;12.06;100.00
36454;BME280;22478;51.740;-1.314;2023-09-19T08:32:47;99105.28;;;12.67;100.00
36454;BME280;22478;51.740;-1.314;2023-09-19T08:35:14;99110.82;;;12.45;100.00
36454;BME280;22478;51.740;-1.314;2023-09-19T08:37:42;99118.48;;;12.28;100.00
36454;BME280;22478;51.740;-1.314;2023-09-19T08:40:10;99099.32;;;12.96;100.00
36454;BME280;22478;51.740;-1.314;2023-09-19T08:42:54;99119.13;;;13.66;100.00
36454;BME280;22478;51.740;-1.314;2023-09-19T08:45:23;99110.95;;;12.57;100.00
36454;BME280;22478;51.740;-1.314;2023-09-19T08:47:56;99106.11;;;12.03;100.00
36454;BME280;22478;51.740;-1.314;2023-09-19T08:50:28;99104.13;;;12.40;100.00
36454;BME280;22478;51.740;-1.314;2023-09-19T08:53:00;99104.23;;;13.20;100.00
36454;BME280;22478;51.740;-1.314;2023-09-19T08:55:29;99103.64;;;12.75;100.00
36454;BME280;22478;51.740;-1.314;2023-09-19T08:58:01;99092.70;;;12.79;100.00
36454;BME280;22478;51.740;-1.314;2023-09-19T09:00:31;99097.96;;;12.46;100.00
36454;BME280;22478;51.740;-1.314;2023-09-19T09:02:59;99095.89;;;12.88;100.00
36454;BME280;22478;51.740;-1.314;2023-09-19T09:05:27;99094.10;;;14.88;100.00
36454;BME280;22478;51.740;-1.314;2023-09-19T09:07:55;99103.08;;;12.73;100.00
36454;BME280;22478;51.740;-1.314;2023-09-19T09:10:23;99092.52;;;12.10;100.00
36454;BME280;22478;51.740;-1.314;2023-09-19T09:12:51;99105.18;;;12.30;100.00
36454;BME280;22478;51.740;-1.314;2023-09-19T09:15:19;99095.09;;;13.64;100.00
36454;BME280;22478;51.740;-1.314;2023-09-19T09:17:48;99101.94;;;12.79;100.00
36454;BME280;22478;51.740;-1.314;2023-09-19T09:20:16;99100.68;;;13.02;100.00
36454;BME280;22478;51.740;-1.314;2023-09-19T09:22:51;99094.52;;;12.30;100.00
36454;BME280;22478;51.740;-1.314;2023-09-19T09:25:18;99097.28;;;12.37;100.00
36454;BME280;22478;51.740;-1.314;2023-09-19T09:27:47;99088.23;;;12.36;100.00
36454;BME280;22478;51.740;-1.314;2023-09-19T09:30:33;99092.40;;;13.49;100.00
36454;BME280;22478;51.740;-1.314;2023-09-19T09:33:08;99102.36;;;11.27;100.00
36454;BME280;22478;51.740;-1.314;2023-09-19T09:35:36;99092.70;;;11.68;100.00
36454;BME280;22478;51.740;-1.314;2023-09-19T09:38:04;99087.22;;;11.21;100.00
36454;BME280;22478;51.740;-1.314;2023-09-19T09:40:46;99096.35;;;12.39;100.00
36454;BME280;22478;51.740;-1.314;2023-09-19T09:43:26;99100.74;;;11.61;100.00
36454;BME280;22478;51.740;-1.314;2023-09-19T09:46:07;99097.52;;;12.55;100.00
36454;BME280;22478;51.740;-1.314;2023-09-19T09:48:35;99088.53;;;13.36;100.00
36454;BME280;22478;51.740;-1.314;2023-09-19T09:51:02;99087.97;;;13.84;100.00
36454;BME280;22478;51.740;-1.314;2023-09-19T09:53:30;99103.83;;;13.25;100.00
36454;BME280;22478;51.740;-1.314;2023-09-19T09:56:00;99077.66;;;14.12;100.00
36454;BME280;22478;51.740;-1.314;2023-09-19T09:58:28;99087.74;;;12.34;100.00
36454;BME280;22478;51.740;-1.314;2023-09-19T10:00:56;99090.80;;;13.70;100.00
36454;BME280;22478;51.740;-1.314;2023-09-19T10:03:32;99091.04;;;13.25;100.00
36454;BME280;22478;51.740;-1.314;2023-09-19T10:06:00;99087.70;;;12.18;100.00
36454;BME280;22478;51.740;-1.314;2023-09-19T10:08:28;99090.22;;;12.66;100.00
36454;BME280;22478;51.740;-1.314;2023-09-19T10:10:55;99086.38;;;14.36;100.00
36454;BME280;22478;51.740;-1.314;2023-09-19T10:13:25;99075.90;;;13.75;100.00
36454;BME280;22478;51.740;-1.314;2023-09-19T10:15:54;99079.92;;;13.79;100.00
36454;BME280;22478;51.740;-1.314;2023-09-19T10:18:25;99084.36;;;12.48;100.00
36454;BME280;22478;51.740;-1.314;2023-09-19T10:20:53;99089.16;;;13.29;100.00
36454;BME280;22478;51.740;-1.314;2023-09-19T10:23:21;99073.99;;;12.65;100.00
36454;BME280;22478;51.740;-1.314;2023-09-19T10:25:49;99085.35;;;13.13;100.00
36454;BME280;22478;51.740;-1.314;2023-09-19T10:28:17;99086.23;;;12.66;100.00
36454;BME280;22478;51.740;-1.314;2023-09-19T10:30:46;99076.04;;;13.24;100.00
36454;BME280;22478;51.740;-1.314;2023-09-19T10:33:16;99070.14;;;14.90;100.00
36454;BME280;22478;51.740;-1.314;2023-09-19T10:35:45;99080.34;;;13.07;100.00
36454;BME280;22478;51.740;-1.314;2023-09-19T10:38:13;99077.30;;;13.50;100.00
36454;BME280;22478;51.740;-1.314;2023-09-19T10:40:41;99074.52;;;13.32;100.00
36454;BME280;22478;51.740;-1.314;2023-09-19T10:43:12;99064.40;;;14.18;100.00
36454;BME280;22478;51.740;-1.314;2023-09-19T10:45:40;99078.87;;;13.02;100.00
36454;BME280;22478;51.740;-1.314;2023-09-19T10:48:08;99079.89;;;13.70;100.00
36454;BME280;22478;51.740;-1.314;2023-09-19T10:50:45;99081.77;;;11.24;100.00
36454;BME280;22478;51.740;-1.314;2023-09-19T10:53:14;99074.45;;;11.34;100.00
36454;BME280;22478;51.740;-1.314;2023-09-19T10:55:50;99086.50;;;12.55;100.00
36454;BME280;22478;51.740;-1.314;2023-09-19T10:58:26;99081.12;;;14.70;100.00
36454;BME280;22478;51.740;-1.314;2023-09-19T11:00:55;99080.72;;;13.19;100.00
36454;BME280;22478;51.740;-1.314;2023-09-19T11:03:24;99080.82;;;13.19;100.00
36454;BME280;22478;51.740;-1.314;2023-09-19T11:06:10;99084.80;;;14.49;100.00
36454;BME280;22478;51.740;-1.314;2023-09-19T11:09:10;99081.10;;;13.12;100.00
36454;BME280;22478;51.740;-1.314;2023-09-19T11:11:42;99076.35;;;14.80;100.00
36454;BME280;22478;51.740;-1.314;2023-09-19T11:14:42;99079.90;;;13.74;100.00
36454;BME280;22478;51.740;-1.314;2023-09-19T11:17:34;99090.78;;;12.80;100.00
36454;BME280;22478;51.740;-1.314;2023-09-19T11:20:34;99086.93;;;11.46;100.00
36454;BME280;22478;51.740;-1.314;2023-09-19T11:23:18;99096.15;;;12.66;100.00
36454;BME280;22478;51.740;-1.314;2023-09-19T11:25:45;99090.96;;;14.09;100.00
36454;BME280;22478;51.740;-1.314;2023-09-19T11:28:31;99090.43;;;13.11;100.00
36454;BME280;22478;51.740;-1.314;2023-09-19T11:30:58;99081.23;;;13.36;100.00
36454;BME280;22478;51.740;-1.314;2023-09-19T11:33:26;99078.93;;;13.37;100.00
36454;BME280;22478;51.740;-1.314;2023-09-19T11:36:03;99088.55;;;13.24;100.00
36454;BME280;22478;51.740;-1.314;2023-09-19T11:39:02;99078.63;;;12.57;100.00
36454;BME280;22478;51.740;-1.314;2023-09-19T11:41:38;99069.45;;;13.51;100.00
36454;BME280;22478;51.740;-1.314;2023-09-19T11:44:38;99070.02;;;12.11;100.00
36454;BME280;22478;51.740;-1.314;2023-09-19T11:47:06;99063.48;;;13.02;100.00
36454;BME280;22478;51.740;-1.314;2023-09-19T11:49:33;99061.75;;;14.57;100.00
36454;BME280;22478;51.740;-1.314;2023-09-19T11:52:01;99063.61;;;13.26;100.00
36454;BME280;22478;51.740;-1.314;2023-09-19T11:54:28;99059.18;;;14.65;100.00
36454;BME280;22478;51.740;-1.314;2023-09-19T11:56:56;99061.73;;;14.15;100.00
36454;BME280;22478;51.740;-1.314;2023-09-19T11:59:25;99067.07;;;13.80;100.00
36454;BME280;22478;51.740;-1.314;2023-09-19T12:01:55;99063.58;;;12.69;100.00
36454;BME280;22478;51.740;-1.314;2023-09-19T12:04:34;99063.12;;;12.79;100.00
36454;BME280;22478;51.740;-1.314;2023-09-19T12:07:01;99063.02;;;12.77;100.00
36454;BME280;22478;51.740;-1.314;2023-09-19T12:09:29;99059.15;;;13.80;100.00
36454;BME280;22478;51.740;-1.314;2023-09-19T12:11:56;99064.54;;;13.20;100.00
36454;BME280;22478;51.740;-1.314;2023-09-19T12:14:23;99056.80;;;13.55;100.00
36454;BME280;22478;51.740;-1.314;2023-09-19T12:16:53;99054.89;;;13.29;100.00
36454;BME280;22478;51.740;-1.314;2023-09-19T12:19:21;99062.62;;;13.47;100.00
36454;BME280;22478;51.740;-1.314;2023-09-19T12:21:57;99054.67;;;12.91;100.00
36454;BME280;22478;51.740;-1.314;2023-09-19T12:24:26;99062.20;;;12.99;100.00
36454;BME280;22478;51.740;-1.314;2023-09-19T12:26:53;99059.09;;;14.49;100.00
36454;BME280;22478;51.740;-1.314;2023-09-19T12:29:22;99068.13;;;12.26;100.00
36454;BME280;22478;51.740;-1.314;2023-09-19T12:31:51;99061.32;;;12.93;100.00
36454;BME280;22478;51.740;-1.314;2023-09-19T12:34:22;99054.48;;;10.97;100.00
36454;BME280;22478;51.740;-1.314;2023-09-19T12:37:03;99054.86;;;13.08;100.00
36454;BME280;22478;51.740;-1.314;2023-09-19T12:39:31;99063.47;;;12.88;100.00
36454;BME280;22478;51.740;-1.314;2023-09-19T12:41:58;99055.02;;;12.14;100.00
36454;BME280;22478;51.740;-1.314;2023-09-19T12:44:26;99052.16;;;13.91;100.00
36454;BME280;22478;51.740;-1.314;2023-09-19T12:46:53;99049.61;;;13.80;100.00
36454;BME280;22478;51.740;-1.314;2023-09-19T12:49:21;99055.99;;;12.63;100.00
36454;BME280;22478;51.740;-1.314;2023-09-19T12:51:49;99052.84;;;13.82;100.00
36454;BME280;22478;51.740;-1.314;2023-09-19T12:54:16;99052.14;;;14.40;100.00
36454;BME280;22478;51.740;-1.314;2023-09-19T12:56:44;99056.95;;;12.96;100.00
36454;BME280;22478;51.740;-1.314;2023-09-19T12:59:13;99064.61;;;13.78;100.00